createdAt,value
2023-03-31T00:00:12.951Z,14.80
2023-03-31T00:02:42.437Z,14.70
2023-03-31T00:05:09.888Z,14.70
2023-03-31T00:07:38.106Z,14.70
2023-03-31T00:10:17.104Z,14.70
2023-03-31T00:12:45.773Z,14.70
2023-03-31T00:15:12.642Z,14.60
2023-03-31T00:17:40.062Z,14.70
2023-03-31T00:20:12.404Z,14.70
2023-03-31T00:22:46.484Z,14.60
2023-03-31T00:25:17.061Z,14.60
2023-03-31T00:27:44.938Z,14.60
2023-03-31T00:30:14.772Z,14.60
2023-03-31T00:32:41.958Z,14.70
2023-03-31T00:35:09.918Z,14.60
2023-03-31T00:37:36.562Z,14.60
2023-03-31T00:40:10.093Z,14.60
2023-03-31T00:42:41.803Z,14.60
2023-03-31T00:45:14.495Z,14.60
2023-03-31T00:48:04.233Z,14.50
2023-03-31T00:50:34.692Z,14.60
2023-03-31T00:53:06.623Z,14.50
2023-03-31T00:55:40.538Z,14.50
2023-03-31T00:58:07.860Z,14.60
2023-03-31T01:00:34.527Z,14.60
2023-03-31T01:03:05.170Z,14.60
2023-03-31T01:05:36.675Z,14.60
2023-03-31T01:08:05.728Z,14.60
2023-03-31T01:10:41.503Z,14.60
2023-03-31T01:13:10.186Z,14.50
2023-03-31T01:15:37.341Z,14.50
2023-03-31T01:18:05.993Z,14.50
2023-03-31T01:21:06.700Z,14.50
2023-03-31T01:23:48.441Z,14.50
2023-03-31T01:26:59.653Z,14.50
2023-03-31T01:29:45.257Z,14.50
2023-03-31T01:32:39.718Z,14.50
2023-03-31T01:35:31.079Z,14.50
2023-03-31T01:38:33.859Z,14.50
2023-03-31T01:41:15.990Z,14.50
2023-03-31T01:43:54.186Z,14.40
2023-03-31T01:46:47.042Z,14.50
2023-03-31T01:49:32.266Z,14.50
2023-03-31T01:52:09.610Z,14.40
2023-03-31T01:54:40.196Z,14.40
2023-03-31T01:57:32.838Z,14.50
2023-03-31T02:00:14.177Z,14.40
2023-03-31T02:02:48.188Z,14.40
2023-03-31T02:05:19.588Z,14.40
2023-03-31T02:08:00.248Z,14.40
2023-03-31T02:10:29.791Z,14.40
2023-03-31T02:12:57.696Z,14.50
2023-03-31T02:15:27.832Z,14.50
2023-03-31T02:17:56.607Z,14.50
2023-03-31T02:20:23.502Z,14.40
2023-03-31T02:22:53.548Z,14.50
2023-03-31T02:25:24.043Z,14.50
2023-03-31T02:27:54.856Z,14.50
2023-03-31T02:30:21.831Z,14.40
2023-03-31T02:32:48.949Z,14.50
2023-03-31T02:35:17.816Z,14.40
2023-03-31T02:37:45.556Z,14.40
2023-03-31T02:40:17.654Z,14.40
2023-03-31T02:42:44.350Z,14.40
2023-03-31T02:45:38.872Z,14.40
2023-03-31T02:48:07.515Z,14.40
2023-03-31T02:50:59.519Z,14.40
2023-03-31T02:53:35.928Z,14.40
2023-03-31T02:56:27.763Z,14.50
2023-03-31T02:59:21.241Z,14.40
2023-03-31T03:02:01.392Z,14.40
2023-03-31T03:04:49.656Z,14.40
2023-03-31T03:07:23.566Z,14.30
2023-03-31T03:10:19.369Z,14.40
2023-03-31T03:13:08.684Z,14.40
2023-03-31T03:15:56.647Z,14.30
2023-03-31T03:18:23.324Z,14.30
2023-03-31T03:20:50.997Z,14.40
2023-03-31T03:23:18.252Z,14.30
2023-03-31T03:25:46.089Z,14.30
2023-03-31T03:28:12.858Z,14.90
2023-03-31T03:30:39.621Z,14.30
2023-03-31T03:33:06.936Z,14.30
2023-03-31T03:35:34.442Z,14.30
2023-03-31T03:38:01.223Z,14.30
2023-03-31T03:40:27.916Z,14.30
2023-03-31T03:42:54.601Z,14.40
2023-03-31T03:45:21.292Z,14.30
2023-03-31T03:47:48.006Z,14.30
2023-03-31T03:50:16.073Z,14.30
2023-03-31T03:52:43.697Z,14.30
2023-03-31T03:55:12.170Z,14.30
2023-03-31T03:57:38.906Z,14.30
2023-03-31T04:00:12.455Z,14.30
2023-03-31T04:02:40.079Z,13.10
2023-03-31T04:05:07.351Z,14.20
2023-03-31T04:07:34.127Z,14.10
2023-03-31T04:10:00.925Z,14.10
2023-03-31T04:12:27.580Z,14.10
2023-03-31T04:14:54.245Z,14.10
2023-03-31T04:17:32.814Z,14.20
2023-03-31T04:20:05.900Z,14.10
2023-03-31T04:22:35.547Z,14.10
2023-03-31T04:25:10.523Z,14.10
2023-03-31T04:27:37.259Z,14.10
2023-03-31T04:30:04.206Z,14.10
2023-03-31T04:32:33.065Z,14.00
2023-03-31T04:35:02.707Z,14.00
2023-03-31T04:37:34.729Z,14.10
2023-03-31T04:40:09.273Z,14.00
2023-03-31T04:42:36.237Z,14.00
2023-03-31T04:45:03.488Z,14.00
2023-03-31T04:47:30.321Z,14.00
2023-03-31T04:49:57.105Z,14.00
2023-03-31T04:52:23.801Z,14.00
2023-03-31T04:54:50.465Z,13.80
2023-03-31T04:57:17.256Z,14.00
2023-03-31T04:59:44.019Z,13.90
2023-03-31T05:02:10.955Z,13.90
2023-03-31T05:04:37.774Z,13.90
2023-03-31T05:07:05.094Z,13.90
2023-03-31T05:09:32.654Z,13.90
2023-03-31T05:12:00.858Z,13.90
2023-03-31T05:14:27.543Z,13.90
2023-03-31T05:16:58.142Z,13.90
2023-03-31T05:19:25.056Z,13.90
2023-03-31T05:21:51.822Z,13.90
2023-03-31T05:24:18.512Z,13.80
2023-03-31T05:26:51.453Z,13.80
2023-03-31T05:29:19.150Z,13.80
2023-03-31T05:31:46.271Z,13.80
2023-03-31T05:34:13.810Z,13.80
2023-03-31T05:36:40.858Z,13.80
2023-03-31T05:39:08.709Z,13.80
2023-03-31T05:41:35.669Z,13.80
2023-03-31T05:44:02.378Z,13.80
2023-03-31T05:46:29.201Z,13.80
2023-03-31T05:48:56.494Z,13.80
2023-03-31T05:51:23.672Z,13.70
2023-03-31T05:53:50.811Z,13.70
2023-03-31T05:56:17.630Z,13.70
2023-03-31T05:58:44.300Z,13.70
2023-03-31T06:01:15.324Z,13.70
2023-03-31T06:03:44.471Z,13.70
2023-03-31T06:06:13.274Z,13.70
2023-03-31T06:08:40.259Z,13.70
2023-03-31T06:11:08.865Z,13.70
2023-03-31T06:13:36.499Z,13.60
2023-03-31T06:16:03.685Z,13.20
2023-03-31T06:18:32.381Z,13.60
2023-03-31T06:20:59.076Z,13.70
2023-03-31T06:23:26.258Z,13.60
2023-03-31T06:25:53.775Z,13.60
2023-03-31T06:28:21.731Z,13.70
2023-03-31T06:30:48.501Z,13.60
2023-03-31T06:33:16.477Z,13.60
2023-03-31T06:35:43.267Z,13.50
2023-03-31T06:38:10.009Z,13.60
2023-03-31T06:40:36.848Z,13.60
2023-03-31T06:43:03.593Z,13.60
2023-03-31T06:45:30.308Z,13.50
2023-03-31T06:47:57.041Z,13.50
2023-03-31T06:50:23.809Z,13.60
2023-03-31T06:52:53.122Z,13.50
2023-03-31T06:55:19.822Z,13.60
2023-03-31T06:57:46.659Z,13.50
2023-03-31T07:00:13.911Z,13.50
2023-03-31T07:02:40.872Z,13.50
2023-03-31T07:05:07.885Z,13.50
2023-03-31T07:07:35.755Z,13.50
2023-03-31T07:10:02.435Z,13.50
2023-03-31T07:12:29.414Z,13.50
2023-03-31T07:14:56.149Z,13.50
2023-03-31T07:17:25.433Z,13.50
2023-03-31T07:19:52.217Z,13.50
2023-03-31T07:22:19.009Z,13.40
2023-03-31T07:24:46.319Z,13.40
2023-03-31T07:27:13.002Z,13.40
2023-03-31T07:29:39.681Z,13.50
2023-03-31T07:32:06.602Z,13.40
2023-03-31T07:34:35.566Z,13.40
2023-03-31T07:37:04.187Z,14.40
2023-03-31T07:39:30.968Z,13.40
2023-03-31T07:41:57.703Z,13.50
2023-03-31T07:44:24.396Z,13.40
2023-03-31T07:46:51.173Z,13.40
2023-03-31T07:49:17.875Z,13.40
2023-03-31T07:51:44.604Z,13.40
2023-03-31T07:54:11.324Z,13.40
2023-03-31T07:56:38.116Z,13.30
2023-03-31T07:59:05.224Z,13.40
2023-03-31T08:01:32.224Z,13.40
2023-03-31T08:03:59.372Z,13.40
2023-03-31T08:06:26.993Z,13.40
2023-03-31T08:08:53.900Z,13.40
2023-03-31T08:11:21.336Z,13.40
2023-03-31T08:13:48.470Z,13.40
2023-03-31T08:16:16.460Z,13.40
2023-03-31T08:18:43.127Z,13.40
2023-03-31T08:21:10.066Z,13.40
2023-03-31T08:23:36.890Z,13.40
2023-03-31T08:26:18.384Z,13.40
2023-03-31T08:28:46.225Z,13.40
2023-03-31T08:31:16.237Z,13.50
2023-03-31T08:33:43.321Z,13.50
2023-03-31T08:36:11.053Z,12.00
2023-03-31T08:38:39.482Z,13.60
2023-03-31T08:41:10.744Z,13.60
2023-03-31T08:43:42.669Z,13.70
2023-03-31T08:46:12.763Z,13.70
2023-03-31T08:48:48.900Z,13.70
2023-03-31T08:51:30.565Z,13.80
2023-03-31T08:54:08.390Z,13.90
2023-03-31T08:56:40.097Z,13.90
2023-03-31T08:59:07.600Z,14.00
2023-03-31T09:02:13.275Z,14.00
2023-03-31T09:04:56.160Z,14.10
2023-03-31T09:07:41.484Z,14.20
2023-03-31T09:10:33.692Z,14.30
2023-03-31T09:13:10.804Z,14.40
2023-03-31T09:15:43.388Z,14.40
2023-03-31T09:18:28.018Z,14.50
2023-03-31T09:21:05.139Z,14.60
2023-03-31T09:23:50.055Z,14.70
2023-03-31T09:26:40.597Z,14.70
2023-03-31T09:29:15.655Z,14.80
2023-03-31T09:31:44.597Z,14.90
2023-03-31T09:34:20.199Z,14.90
2023-03-31T09:36:47.582Z,15.00
2023-03-31T09:39:15.236Z,15.10
2023-03-31T09:41:49.211Z,15.20
2023-03-31T09:44:26.429Z,15.20
2023-03-31T09:46:54.609Z,15.30
2023-03-31T09:49:28.847Z,15.40
2023-03-31T09:52:20.035Z,13.70
2023-03-31T09:54:52.927Z,15.50
2023-03-31T09:57:34.840Z,15.50
2023-03-31T10:00:14.066Z,15.60
2023-03-31T10:02:48.872Z,15.70
2023-03-31T10:05:37.584Z,15.70
2023-03-31T10:08:49.473Z,15.80
2023-03-31T10:11:16.353Z,15.80
2023-03-31T10:13:49.989Z,16.00
2023-03-31T10:16:31.487Z,16.00
2023-03-31T10:19:20.198Z,16.00
2023-03-31T10:21:49.622Z,16.10
2023-03-31T10:24:19.452Z,16.20
2023-03-31T10:26:50.810Z,16.30
2023-03-31T10:29:29.836Z,16.30
2023-03-31T10:31:59.247Z,16.30
2023-03-31T10:34:26.573Z,16.40
2023-03-31T10:36:53.384Z,16.50
2023-03-31T10:39:20.586Z,16.60
2023-03-31T10:41:55.957Z,16.70
2023-03-31T10:44:37.782Z,16.80
2023-03-31T10:47:19.852Z,16.80
2023-03-31T10:49:50.262Z,16.90
2023-03-31T10:52:22.793Z,17.00
2023-03-31T10:54:58.297Z,17.00
2023-03-31T10:57:40.723Z,17.10
2023-03-31T11:00:19.180Z,17.20
2023-03-31T11:03:18.155Z,17.30
2023-03-31T11:05:59.639Z,17.30
2023-03-31T11:08:41.829Z,17.30
2023-03-31T11:11:23.263Z,17.40
2023-03-31T11:14:13.844Z,17.50
2023-03-31T11:16:56.914Z,17.50
2023-03-31T11:19:52.834Z,17.50
2023-03-31T11:25:26.718Z,17.60
2023-03-31T11:28:15.497Z,17.60
2023-03-31T11:30:55.728Z,17.60
2023-03-31T11:33:38.010Z,17.60
2023-03-31T11:36:05.324Z,17.60
2023-03-31T11:38:48.299Z,17.60
2023-03-31T11:41:19.531Z,17.60
2023-03-31T11:43:53.245Z,17.50
2023-03-31T11:46:28.033Z,17.50
2023-03-31T11:49:11.862Z,17.50
2023-03-31T11:51:52.033Z,17.40
2023-03-31T11:54:31.493Z,17.40
2023-03-31T11:57:00.546Z,15.70
2023-03-31T11:59:30.050Z,17.30
2023-03-31T12:01:56.914Z,17.20
2023-03-31T12:04:33.778Z,17.20
2023-03-31T12:07:22.555Z,17.20
2023-03-31T12:10:20.577Z,17.10
2023-03-31T12:12:57.814Z,17.00
2023-03-31T12:15:34.098Z,17.10
2023-03-31T12:18:08.380Z,17.00
2023-03-31T12:20:41.811Z,17.00
2023-03-31T12:23:14.309Z,16.90
2023-03-31T12:26:07.296Z,16.90
2023-03-31T12:28:37.469Z,16.90
2023-03-31T12:31:05.570Z,16.90
2023-03-31T12:33:36.932Z,16.90
2023-03-31T12:36:18.734Z,16.90
2023-03-31T12:39:12.400Z,16.90
2023-03-31T12:42:08.315Z,16.90
2023-03-31T12:44:57.074Z,16.90
2023-03-31T12:47:45.694Z,16.90
2023-03-31T12:50:31.236Z,16.90
2023-03-31T12:53:36.281Z,16.90
2023-03-31T12:56:03.027Z,17.00
2023-03-31T12:58:32.893Z,17.00
2023-03-31T13:01:16.680Z,17.00
2023-03-31T13:04:11.184Z,17.10
2023-03-31T13:06:37.911Z,17.10
2023-03-31T13:09:30.574Z,17.20
2023-03-31T13:11:57.608Z,17.30
2023-03-31T13:14:38.598Z,17.30
2023-03-31T13:17:23.199Z,17.40
2023-03-31T13:19:51.158Z,17.30
2023-03-31T13:25:32.641Z,17.50
2023-03-31T13:28:13.764Z,17.50
2023-03-31T13:30:40.411Z,17.50
2023-03-31T13:33:12.755Z,17.50
2023-03-31T13:35:42.587Z,17.50
2023-03-31T13:38:35.470Z,17.50
2023-03-31T13:41:33.754Z,17.50
2023-03-31T13:44:29.839Z,17.50
2023-03-31T13:47:07.472Z,17.50
2023-03-31T13:49:47.596Z,17.30
2023-03-31T13:52:14.333Z,17.40
2023-03-31T13:55:18.824Z,17.40
2023-03-31T13:58:24.733Z,17.40
2023-03-31T14:01:02.976Z,17.30
2023-03-31T14:04:07.607Z,17.20
2023-03-31T14:06:50.516Z,17.20
2023-03-31T14:09:37.476Z,17.10
2023-03-31T14:12:31.853Z,17.10
2023-03-31T14:14:58.932Z,17.00
2023-03-31T14:17:37.931Z,17.00
2023-03-31T14:20:14.202Z,17.00
2023-03-31T14:23:00.056Z,17.00
2023-03-31T14:25:36.071Z,17.00
2023-03-31T14:28:16.935Z,17.10
2023-03-31T14:30:48.358Z,17.10
2023-03-31T14:33:15.069Z,17.20
2023-03-31T14:35:53.157Z,17.20
2023-03-31T14:38:21.477Z,17.20
2023-03-31T14:40:50.877Z,17.20
2023-03-31T14:43:21.346Z,17.40
2023-03-31T14:46:03.469Z,17.40
2023-03-31T14:48:33.501Z,17.50
2023-03-31T14:51:03.227Z,17.50
2023-03-31T14:53:30.057Z,17.60
2023-03-31T14:56:04.806Z,17.70
2023-03-31T14:58:35.021Z,17.80
2023-03-31T15:01:04.574Z,17.90
2023-03-31T15:03:33.062Z,18.00
2023-03-31T15:06:01.226Z,18.00
2023-03-31T15:08:29.837Z,18.20
2023-03-31T15:13:38.029Z,18.40
2023-03-31T15:16:32.890Z,18.40
2023-03-31T15:19:01.559Z,18.60
2023-03-31T15:21:31.920Z,18.70
2023-03-31T15:23:59.293Z,18.90
2023-03-31T15:26:40.524Z,19.00
2023-03-31T15:29:21.328Z,19.10
2023-03-31T15:31:48.642Z,19.20
2023-03-31T15:34:25.713Z,19.30
2023-03-31T15:36:55.140Z,19.40
2023-03-31T15:39:26.385Z,19.50
2023-03-31T15:41:53.783Z,19.60
2023-03-31T15:44:35.536Z,19.70
2023-03-31T15:47:06.430Z,19.70
2023-03-31T15:49:33.204Z,19.70
2023-03-31T15:52:02.311Z,19.80
2023-03-31T15:54:36.266Z,19.90
2023-03-31T15:57:05.616Z,19.90
2023-03-31T15:59:55.394Z,19.90
2023-03-31T16:02:26.324Z,20.00
2023-03-31T16:04:58.238Z,20.00
2023-03-31T16:07:31.810Z,20.00
2023-03-31T16:10:24.940Z,19.90
2023-03-31T16:12:55.986Z,19.90
2023-03-31T16:15:33.935Z,19.80
2023-03-31T16:18:27.173Z,19.80
2023-03-31T16:20:56.618Z,19.70
2023-03-31T16:23:31.479Z,19.70
2023-03-31T16:25:59.248Z,19.60
2023-03-31T16:28:31.518Z,19.60
2023-03-31T16:31:01.892Z,19.50
2023-03-31T16:33:30.920Z,19.40
2023-03-31T16:35:58.991Z,19.30
2023-03-31T16:38:27.520Z,19.20
2023-03-31T16:40:56.303Z,19.20
2023-03-31T16:43:28.207Z,19.10
2023-03-31T16:45:56.819Z,19.00
2023-03-31T16:48:26.680Z,19.00
2023-03-31T16:50:55.548Z,18.90
2023-03-31T16:53:24.999Z,18.70
2023-03-31T16:55:51.848Z,18.70
2023-03-31T16:58:18.877Z,18.60
2023-03-31T17:00:46.775Z,18.60
2023-03-31T17:03:15.652Z,18.50
2023-03-31T17:05:47.723Z,18.50
2023-03-31T17:08:15.594Z,18.30
2023-03-31T17:10:42.372Z,18.30
2023-03-31T17:13:09.770Z,18.20
2023-03-31T17:15:37.931Z,18.20
2023-03-31T17:18:05.244Z,18.10
2023-03-31T17:20:32.801Z,18.00
2023-03-31T17:23:00.143Z,18.00
2023-03-31T17:25:26.991Z,17.90
2023-03-31T17:27:55.855Z,17.90
2023-03-31T17:30:23.184Z,17.80
2023-03-31T17:32:51.556Z,17.70
2023-03-31T17:35:22.624Z,17.70
2023-03-31T17:37:55.813Z,17.60
2023-03-31T17:40:25.229Z,17.60
2023-03-31T17:42:53.930Z,17.50
2023-03-31T17:45:20.623Z,17.50
2023-03-31T17:47:47.435Z,17.40
2023-03-31T17:50:14.181Z,17.40
2023-03-31T17:52:41.082Z,17.30
2023-03-31T17:55:08.132Z,17.30
2023-03-31T17:57:37.026Z,17.20
2023-03-31T18:00:06.053Z,17.20
2023-03-31T18:02:33.242Z,17.10
2023-03-31T18:05:00.652Z,17.10
2023-03-31T18:07:27.509Z,17.00
2023-03-31T18:09:54.303Z,17.00
2023-03-31T18:12:21.098Z,16.90
2023-03-31T18:14:48.113Z,16.90
2023-03-31T18:17:15.375Z,16.80
2023-03-31T18:19:42.857Z,16.80
2023-03-31T18:22:10.206Z,16.70
2023-03-31T18:24:38.393Z,16.60
2023-03-31T18:27:05.716Z,16.60
2023-03-31T18:29:32.595Z,16.60
2023-03-31T18:31:59.684Z,16.50
2023-03-31T18:34:26.712Z,16.40
2023-03-31T18:36:53.591Z,16.40
2023-03-31T18:39:20.702Z,16.40
2023-03-31T18:41:48.650Z,17.30
2023-03-31T18:44:18.015Z,16.30
2023-03-31T18:46:45.785Z,16.20
2023-03-31T18:49:13.700Z,16.20
2023-03-31T18:51:43.372Z,16.20
2023-03-31T18:54:13.274Z,16.10
2023-03-31T18:56:42.662Z,16.10
2023-03-31T18:59:12.038Z,16.00
2023-03-31T19:01:40.868Z,16.00
2023-03-31T19:04:08.302Z,15.90
2023-03-31T19:06:35.646Z,15.80
2023-03-31T19:09:02.471Z,15.80
2023-03-31T19:11:29.163Z,15.80
2023-03-31T19:13:56.355Z,15.70
2023-03-31T19:16:24.797Z,15.70
2023-03-31T19:18:51.807Z,15.60
2023-03-31T19:21:18.568Z,15.60
2023-03-31T19:23:45.470Z,15.50
2023-03-31T19:26:15.984Z,15.50
2023-03-31T19:28:42.892Z,15.50
2023-03-31T19:31:10.860Z,15.40
2023-03-31T19:33:37.823Z,15.40
2023-03-31T19:36:04.813Z,15.30
2023-03-31T19:38:32.989Z,15.30
2023-03-31T19:41:00.329Z,15.20
2023-03-31T19:43:29.283Z,15.20
2023-03-31T19:45:58.155Z,15.20
2023-03-31T19:48:26.552Z,15.10
2023-03-31T19:50:55.940Z,15.10
2023-03-31T19:53:23.919Z,15.00
2023-03-31T19:56:05.966Z,15.00
2023-03-31T19:58:35.586Z,15.00
2023-03-31T20:01:15.563Z,14.90
2023-03-31T20:03:42.523Z,14.90
2023-03-31T20:06:12.199Z,14.80
2023-03-31T20:08:41.582Z,14.80
2023-03-31T20:11:13.746Z,14.70
2023-03-31T20:13:42.022Z,14.70
2023-03-31T20:16:11.750Z,14.70
2023-03-31T20:18:38.869Z,14.60
2023-03-31T20:21:09.691Z,14.60
2023-03-31T20:23:38.072Z,14.60
2023-03-31T20:26:07.181Z,14.60
2023-03-31T20:28:34.937Z,14.60
2023-03-31T20:31:13.378Z,14.50
2023-03-31T20:33:42.133Z,14.50
2023-03-31T20:36:11.634Z,14.40
2023-03-31T20:38:40.075Z,14.40
2023-03-31T20:41:07.932Z,14.40
2023-03-31T20:43:35.858Z,14.40
2023-03-31T20:46:04.979Z,14.40
2023-03-31T20:48:34.831Z,14.40
2023-03-31T20:51:02.180Z,14.30
2023-03-31T20:53:28.849Z,14.30
2023-03-31T20:55:55.639Z,14.30
2023-03-31T20:58:22.372Z,14.20
2023-03-31T21:00:49.177Z,14.20
2023-03-31T21:03:16.233Z,14.20
2023-03-31T21:05:44.520Z,14.20
2023-03-31T21:08:12.351Z,14.10
2023-03-31T21:10:43.634Z,14.10
2023-03-31T21:13:15.557Z,14.10
2023-03-31T21:15:47.294Z,14.10
2023-03-31T21:18:16.988Z,14.00
2023-03-31T21:20:55.953Z,14.00
2023-03-31T21:23:23.855Z,14.00
2023-03-31T21:25:52.660Z,14.00
2023-03-31T21:28:21.014Z,13.90
2023-03-31T21:30:50.725Z,13.90
2023-03-31T21:33:17.780Z,13.90
2023-03-31T21:35:44.727Z,13.80
2023-03-31T21:38:12.072Z,13.80
2023-03-31T21:40:38.836Z,13.90
2023-03-31T21:43:05.705Z,13.80
2023-03-31T21:45:34.335Z,13.80
2023-03-31T21:48:01.374Z,13.80
2023-03-31T21:50:28.250Z,13.70
2023-03-31T21:52:55.172Z,13.70
2023-03-31T21:55:22.228Z,13.70
2023-03-31T21:57:48.952Z,13.70
2023-03-31T22:00:16.535Z,13.70
2023-03-31T22:02:43.594Z,13.70
2023-03-31T22:05:10.889Z,13.70
2023-03-31T22:07:37.985Z,13.70
2023-03-31T22:10:05.755Z,13.70
2023-03-31T22:12:32.635Z,13.60
2023-03-31T22:14:59.500Z,13.50
2023-03-31T22:17:26.978Z,13.60
2023-03-31T22:19:54.684Z,13.50
2023-03-31T22:22:21.974Z,13.60
2023-03-31T22:24:48.936Z,13.60
2023-03-31T22:27:15.697Z,13.50
2023-03-31T22:29:42.550Z,13.50
2023-03-31T22:32:09.393Z,13.50
2023-03-31T22:34:36.234Z,13.50
2023-03-31T22:37:03.556Z,13.50
2023-03-31T22:39:30.335Z,13.40
2023-03-31T22:41:57.014Z,13.40
2023-03-31T22:44:23.698Z,13.40
2023-03-31T22:46:51.374Z,13.30
2023-03-31T22:49:18.233Z,13.40
2023-03-31T22:51:45.287Z,13.20
2023-03-31T22:54:16.534Z,13.40
2023-03-31T22:56:44.480Z,13.30
2023-03-31T22:59:11.657Z,13.30
2023-03-31T23:01:38.348Z,13.30
2023-03-31T23:04:05.287Z,13.30
2023-03-31T23:06:33.632Z,13.30
2023-03-31T23:09:02.507Z,13.30
2023-03-31T23:11:30.458Z,13.20
2023-03-31T23:13:57.356Z,13.20
2023-03-31T23:16:25.761Z,13.20
2023-03-31T23:18:53.845Z,13.20
2023-03-31T23:21:23.577Z,13.10
2023-03-31T23:23:55.673Z,13.10
2023-03-31T23:26:24.263Z,13.10
2023-03-31T23:28:53.010Z,13.10
2023-03-31T23:31:25.829Z,13.10
2023-03-31T23:33:52.936Z,13.10
2023-03-31T23:36:21.446Z,13.10
2023-03-31T23:38:49.852Z,13.00
2023-03-31T23:41:17.376Z,13.00
2023-03-31T23:43:44.789Z,13.00
2023-03-31T23:46:12.298Z,14.00
2023-03-31T23:48:39.641Z,13.00
2023-03-31T23:51:07.701Z,13.00
2023-03-31T23:53:35.539Z,13.00
2023-03-31T23:56:08.810Z,13.00
2023-03-31T23:58:35.906Z,12.90
